Kezdőlap
METAR-TAF:

METAR-TAF

Repülőterek :

Béchar, Algéria

földrajzi szélesség: 31-37N, földrajzi hosszúság: 002-14W, magasság: 773 m

Jelenlegi meteorológiai megfigyelések

A jelentés 15 perccel ezelõtt készült, 00:00 UTC
Dél-délnyugati szél 7 kt
Hőmérséklet 34°C
Páratartalom 11%
Légköri nyomás 1015 hPa
Látótávolság: 3000 m
kiterjedt por,

METAR: DAOR 180000Z 20007KT 3000 DU NSC 34/M00 Q1015

Idő: 01:15 (00:15 UTC)

Előrejelzés

A jelentés 1 órával és 15 perccel ezelõtt készült, 23:00 UTC
Az előrejelzés 18-én 00 óra UTC és 18-én 09 óra UTC között érvényes
Délnyugati szél 10 kt
Látótávolság: 3000 m
kiterjedt por
18-én 01 óra UTC és 18-én 04 óra UTC között fokozatosan kialakuló
Látótávolság: 6000 m

TAF: DAOR 172300Z 1800/1809 22010KT 3000 DU NSC BECMG 1801/1804 6000 NSW

Meteorológiai megfigyelések és előrejelzések több, mint 4000 repülőtéren (METAR és TAF jelentéseket).

A térképen piros és sárga pontok jelzik az elérhető meteorológiai állomásokat.

Mozgassa az egeret a pont fölött, hogy megjelenjen az állomás neve.

Azután kattintson az időjárási megfigyelések és előrejelzések megtekintéséhez.

A térkép megváltoztatása: kattintson a fekete keresztel jelölt zöld gombra ráközelítéshez, a vonallal jelölt zöld gombra távolításhoz, vagy a zöld nyilakra a szomszédos térképek eléréséhez.


METAR-TAF: